sensor_id;sensor_type;location;lat;lon;timestamp;temperature;humidity
52963;DHT22;38827;53.024;6.596;2023-11-19T00:03:12;11.40;98.40
52963;DHT22;38827;53.024;6.596;2023-11-19T00:05:39;11.40;98.60
52963;DHT22;38827;53.024;6.596;2023-11-19T00:08:13;11.50;98.50
52963;DHT22;38827;53.024;6.596;2023-11-19T00:10:39;11.50;98.20
52963;DHT22;38827;53.024;6.596;2023-11-19T00:13:11;11.50;98.20
52963;DHT22;38827;53.024;6.596;2023-11-19T00:15:37;11.50;98.20
52963;DHT22;38827;53.024;6.596;2023-11-19T00:18:16;11.60;98.20
52963;DHT22;38827;53.024;6.596;2023-11-19T00:20:42;11.60;98.20
52963;DHT22;38827;53.024;6.596;2023-11-19T00:23:10;11.60;98.40
52963;DHT22;38827;53.024;6.596;2023-11-19T00:25:35;11.70;98.50
52963;DHT22;38827;53.024;6.596;2023-11-19T00:28:01;11.70;98.50
52963;DHT22;38827;53.024;6.596;2023-11-19T00:30:27;11.80;98.40
52963;DHT22;38827;53.024;6.596;2023-11-19T00:32:53;11.80;98.30
52963;DHT22;38827;53.024;6.596;2023-11-19T00:35:18;11.80;98.20
52963;DHT22;38827;53.024;6.596;2023-11-19T00:37:44;11.80;98.30
52963;DHT22;38827;53.024;6.596;2023-11-19T00:40:11;11.90;98.20
52963;DHT22;38827;53.024;6.596;2023-11-19T00:42:43;11.90;98.20
52963;DHT22;38827;53.024;6.596;2023-11-19T00:45:15;12.00;98.30
52963;DHT22;38827;53.024;6.596;2023-11-19T00:47:51;12.00;98.30
52963;DHT22;38827;53.024;6.596;2023-11-19T00:50:35;12.00;98.20
52963;DHT22;38827;53.024;6.596;2023-11-19T00:53:13;12.00;98.10
52963;DHT22;38827;53.024;6.596;2023-11-19T00:58:24;12.00;98.40
52963;DHT22;38827;53.024;6.596;2023-11-19T01:00:58;12.00;98.30
52963;DHT22;38827;53.024;6.596;2023-11-19T01:03:37;12.10;98.20
52963;DHT22;38827;53.024;6.596;2023-11-19T01:06:12;12.10;98.10
52963;DHT22;38827;53.024;6.596;2023-11-19T01:08:39;12.10;98.10
52963;DHT22;38827;53.024;6.596;2023-11-19T01:11:05;12.20;98.00
52963;DHT22;38827;53.024;6.596;2023-11-19T01:13:30;12.20;97.90
52963;DHT22;38827;53.024;6.596;2023-11-19T01:16:13;12.20;97.70
52963;DHT22;38827;53.024;6.596;2023-11-19T01:18:39;12.30;97.90
52963;DHT22;38827;53.024;6.596;2023-11-19T01:21:05;12.30;97.90
52963;DHT22;38827;53.024;6.596;2023-11-19T01:23:34;12.30;97.80
52963;DHT22;38827;53.024;6.596;2023-11-19T01:26:00;12.30;97.60
52963;DHT22;38827;53.024;6.596;2023-11-19T01:28:39;12.30;97.60
52963;DHT22;38827;53.024;6.596;2023-11-19T01:45:55;12.20;97.20
52963;DHT22;38827;53.024;6.596;2023-11-19T01:48:21;12.20;97.10
52963;DHT22;38827;53.024;6.596;2023-11-19T01:50:46;12.30;96.80
52963;DHT22;38827;53.024;6.596;2023-11-19T01:53:15;12.20;96.70
52963;DHT22;38827;53.024;6.596;2023-11-19T01:55:46;12.20;96.60
52963;DHT22;38827;53.024;6.596;2023-11-19T01:58:13;12.20;96.60
52963;DHT22;38827;53.024;6.596;2023-11-19T02:00:40;12.20;96.60
52963;DHT22;38827;53.024;6.596;2023-11-19T02:03:06;12.20;96.40
52963;DHT22;38827;53.024;6.596;2023-11-19T02:05:34;12.20;96.40
52963;DHT22;38827;53.024;6.596;2023-11-19T02:08:00;12.10;96.30
52963;DHT22;38827;53.024;6.596;2023-11-19T02:10:26;12.10;96.30
52963;DHT22;38827;53.024;6.596;2023-11-19T02:12:52;12.10;96.20
52963;DHT22;38827;53.024;6.596;2023-11-19T02:15:18;12.10;96.10
52963;DHT22;38827;53.024;6.596;2023-11-19T02:17:50;12.00;96.20
52963;DHT22;38827;53.024;6.596;2023-11-19T02:20:26;12.00;96.20
52963;DHT22;38827;53.024;6.596;2023-11-19T02:22:51;12.00;96.10
52963;DHT22;38827;53.024;6.596;2023-11-19T02:25:25;12.00;96.20
52963;DHT22;38827;53.024;6.596;2023-11-19T02:28:02;12.00;96.20
52963;DHT22;38827;53.024;6.596;2023-11-19T02:30:28;12.00;96.20
52963;DHT22;38827;53.024;6.596;2023-11-19T02:32:58;12.00;96.20
52963;DHT22;38827;53.024;6.596;2023-11-19T02:35:35;12.00;96.30
52963;DHT22;38827;53.024;6.596;2023-11-19T02:38:03;12.00;96.20
52963;DHT22;38827;53.024;6.596;2023-11-19T02:40:29;12.00;96.20
52963;DHT22;38827;53.024;6.596;2023-11-19T02:42:56;12.10;96.10
52963;DHT22;38827;53.024;6.596;2023-11-19T02:45:23;12.10;95.90
52963;DHT22;38827;53.024;6.596;2023-11-19T02:47:49;12.10;95.90
52963;DHT22;38827;53.024;6.596;2023-11-19T02:50:15;12.10;95.70
52963;DHT22;38827;53.024;6.596;2023-11-19T02:52:51;12.10;95.70
52963;DHT22;38827;53.024;6.596;2023-11-19T02:55:17;12.10;95.60
52963;DHT22;38827;53.024;6.596;2023-11-19T02:57:43;12.20;95.60
52963;DHT22;38827;53.024;6.596;2023-11-19T03:00:19;12.20;95.30
52963;DHT22;38827;53.024;6.596;2023-11-19T03:02:49;12.20;95.10
52963;DHT22;38827;53.024;6.596;2023-11-19T03:05:24;12.20;95.20
52963;DHT22;38827;53.024;6.596;2023-11-19T03:07:53;12.20;95.10
52963;DHT22;38827;53.024;6.596;2023-11-19T03:22:05;12.10;94.70
52963;DHT22;38827;53.024;6.596;2023-11-19T03:24:35;12.00;94.80
52963;DHT22;38827;53.024;6.596;2023-11-19T03:27:04;12.00;94.70
52963;DHT22;38827;53.024;6.596;2023-11-19T03:29:29;12.10;94.70
52963;DHT22;38827;53.024;6.596;2023-11-19T03:31:55;12.10;94.50
52963;DHT22;38827;53.024;6.596;2023-11-19T03:34:45;12.10;94.40
52963;DHT22;38827;53.024;6.596;2023-11-19T03:37:19;12.10;94.40
52963;DHT22;38827;53.024;6.596;2023-11-19T03:39:45;12.10;94.20
52963;DHT22;38827;53.024;6.596;2023-11-19T03:42:11;12.10;94.20
52963;DHT22;38827;53.024;6.596;2023-11-19T03:44:38;12.10;94.20
52963;DHT22;38827;53.024;6.596;2023-11-19T03:47:07;12.10;94.10
52963;DHT22;38827;53.024;6.596;2023-11-19T03:49:51;12.10;94.00
52963;DHT22;38827;53.024;6.596;2023-11-19T03:52:18;12.10;93.90
52963;DHT22;38827;53.024;6.596;2023-11-19T03:54:44;12.10;93.80
52963;DHT22;38827;53.024;6.596;2023-11-19T03:57:12;12.10;93.60
52963;DHT22;38827;53.024;6.596;2023-11-19T03:59:44;12.10;93.50
52963;DHT22;38827;53.024;6.596;2023-11-19T04:02:10;12.10;93.20
52963;DHT22;38827;53.024;6.596;2023-11-19T04:04:35;12.10;93.60
52963;DHT22;38827;53.024;6.596;2023-11-19T04:07:07;12.10;93.50
52963;DHT22;38827;53.024;6.596;2023-11-19T04:09:33;12.10;93.30
52963;DHT22;38827;53.024;6.596;2023-11-19T04:12:00;12.00;93.20
52963;DHT22;38827;53.024;6.596;2023-11-19T04:14:29;12.00;93.20
52963;DHT22;38827;53.024;6.596;2023-11-19T04:16:54;12.00;93.20
52963;DHT22;38827;53.024;6.596;2023-11-19T04:22:58;12.00;93.20
52963;DHT22;38827;53.024;6.596;2023-11-19T04:25:32;12.00;93.30
52963;DHT22;38827;53.024;6.596;2023-11-19T04:28:00;12.00;93.30
52963;DHT22;38827;53.024;6.596;2023-11-19T04:30:29;12.00;93.10
52963;DHT22;38827;53.024;6.596;2023-11-19T04:33:01;12.00;92.90
52963;DHT22;38827;53.024;6.596;2023-11-19T04:35:29;12.00;92.70
52963;DHT22;38827;53.024;6.596;2023-11-19T04:38:07;11.90;92.70
52963;DHT22;38827;53.024;6.596;2023-11-19T04:40:33;11.90;92.60
52963;DHT22;38827;53.024;6.596;2023-11-19T04:43:33;11.80;92.70
52963;DHT22;38827;53.024;6.596;2023-11-19T05:06:59;11.50;92.80
52963;DHT22;38827;53.024;6.596;2023-11-19T05:09:24;11.50;92.70
52963;DHT22;38827;53.024;6.596;2023-11-19T05:11:53;11.50;92.60
52963;DHT22;38827;53.024;6.596;2023-11-19T05:14:41;11.60;92.40
52963;DHT22;38827;53.024;6.596;2023-11-19T05:17:13;11.60;92.20
52963;DHT22;38827;53.024;6.596;2023-11-19T05:19:39;11.60;92.20
52963;DHT22;38827;53.024;6.596;2023-11-19T05:22:11;11.60;92.10
52963;DHT22;38827;53.024;6.596;2023-11-19T05:24:36;11.60;91.90
52963;DHT22;38827;53.024;6.596;2023-11-19T05:27:02;11.70;91.80
52963;DHT22;38827;53.024;6.596;2023-11-19T05:29:34;11.70;91.60
52963;DHT22;38827;53.024;6.596;2023-11-19T05:32:01;11.70;91.50
52963;DHT22;38827;53.024;6.596;2023-11-19T05:34:42;11.70;91.10
52963;DHT22;38827;53.024;6.596;2023-11-19T05:37:17;11.70;90.80
52963;DHT22;38827;53.024;6.596;2023-11-19T05:39:42;11.70;90.80
52963;DHT22;38827;53.024;6.596;2023-11-19T05:42:17;11.70;90.70
52963;DHT22;38827;53.024;6.596;2023-11-19T05:45:01;11.70;90.50
52963;DHT22;38827;53.024;6.596;2023-11-19T05:47:27;11.70;90.40
52963;DHT22;38827;53.024;6.596;2023-11-19T05:49:59;11.70;90.40
52963;DHT22;38827;53.024;6.596;2023-11-19T05:52:27;11.70;90.30
52963;DHT22;38827;53.024;6.596;2023-11-19T05:55:01;11.70;90.20
52963;DHT22;38827;53.024;6.596;2023-11-19T05:57:57;11.70;90.00
52963;DHT22;38827;53.024;6.596;2023-11-19T06:00:23;11.70;89.90
52963;DHT22;38827;53.024;6.596;2023-11-19T06:02:49;11.70;89.80
52963;DHT22;38827;53.024;6.596;2023-11-19T06:07:55;11.70;89.70
52963;DHT22;38827;53.024;6.596;2023-11-19T06:14:06;11.70;89.50
52963;DHT22;38827;53.024;6.596;2023-11-19T06:16:41;11.60;89.50
52963;DHT22;38827;53.024;6.596;2023-11-19T06:19:10;11.70;89.40
52963;DHT22;38827;53.024;6.596;2023-11-19T06:21:46;11.70;89.20
52963;DHT22;38827;53.024;6.596;2023-11-19T06:42:38;11.60;88.30
52963;DHT22;38827;53.024;6.596;2023-11-19T06:45:07;11.60;88.50
52963;DHT22;38827;53.024;6.596;2023-11-19T06:47:36;11.60;88.30
52963;DHT22;38827;53.024;6.596;2023-11-19T06:50:07;11.60;88.10
52963;DHT22;38827;53.024;6.596;2023-11-19T06:52:56;11.60;87.90
52963;DHT22;38827;53.024;6.596;2023-11-19T06:55:22;11.60;87.60
52963;DHT22;38827;53.024;6.596;2023-11-19T07:00:47;11.60;87.50
52963;DHT22;38827;53.024;6.596;2023-11-19T07:03:18;11.60;87.60
52963;DHT22;38827;53.024;6.596;2023-11-19T07:05:45;11.60;87.60
52963;DHT22;38827;53.024;6.596;2023-11-19T07:08:23;11.60;87.40
52963;DHT22;38827;53.024;6.596;2023-11-19T07:10:58;11.60;87.00
52963;DHT22;38827;53.024;6.596;2023-11-19T07:13:24;11.70;87.10
52963;DHT22;38827;53.024;6.596;2023-11-19T07:15:50;11.60;87.00
52963;DHT22;38827;53.024;6.596;2023-11-19T07:18:31;11.70;87.00
52963;DHT22;38827;53.024;6.596;2023-11-19T07:21:31;11.70;86.50
52963;DHT22;38827;53.024;6.596;2023-11-19T07:24:21;11.70;86.40
52963;DHT22;38827;53.024;6.596;2023-11-19T07:26:48;11.60;86.50
52963;DHT22;38827;53.024;6.596;2023-11-19T07:29:28;11.60;86.30
52963;DHT22;38827;53.024;6.596;2023-11-19T07:31:54;11.70;86.20
52963;DHT22;38827;53.024;6.596;2023-11-19T07:34:39;11.70;86.40
52963;DHT22;38827;53.024;6.596;2023-11-19T07:37:05;11.70;86.30
52963;DHT22;38827;53.024;6.596;2023-11-19T07:39:43;11.70;86.10
52963;DHT22;38827;53.024;6.596;2023-11-19T07:59:58;11.70;85.60
52963;DHT22;38827;53.024;6.596;2023-11-19T09:00:42;11.70;86.50
52963;DHT22;38827;53.024;6.596;2023-11-19T09:03:08;11.70;86.60
52963;DHT22;38827;53.024;6.596;2023-11-19T09:05:55;11.60;86.60
52963;DHT22;38827;53.024;6.596;2023-11-19T09:08:56;11.70;86.70
52963;DHT22;38827;53.024;6.596;2023-11-19T09:11:45;11.70;86.70
52963;DHT22;38827;53.024;6.596;2023-11-19T09:14:17;11.80;87.20
52963;DHT22;38827;53.024;6.596;2023-11-19T09:16:50;11.90;86.60
52963;DHT22;38827;53.024;6.596;2023-11-19T09:19:19;11.90;86.40
52963;DHT22;38827;53.024;6.596;2023-11-19T09:25:16;12.40;85.00
52963;DHT22;38827;53.024;6.596;2023-11-19T09:27:43;12.40;84.40
52963;DHT22;38827;53.024;6.596;2023-11-19T09:30:59;12.60;85.10
52963;DHT22;38827;53.024;6.596;2023-11-19T09:33:25;12.80;82.80
52963;DHT22;38827;53.024;6.596;2023-11-19T10:10:51;12.20;83.40
52963;DHT22;38827;53.024;6.596;2023-11-19T10:13:27;12.20;83.80
52963;DHT22;38827;53.024;6.596;2023-11-19T10:40:45;12.50;83.00
52963;DHT22;38827;53.024;6.596;2023-11-19T11:08:37;11.90;86.00
52963;DHT22;38827;53.024;6.596;2023-11-19T11:19:41;11.90;86.90
52963;DHT22;38827;53.024;6.596;2023-11-19T13:30:11;12.80;81.60
52963;DHT22;38827;53.024;6.596;2023-11-19T13:32:43;12.70;81.40
52963;DHT22;38827;53.024;6.596;2023-11-19T13:35:25;12.70;81.80
52963;DHT22;38827;53.024;6.596;2023-11-19T13:44:29;12.60;81.70
52963;DHT22;38827;53.024;6.596;2023-11-19T13:46:57;12.60;81.90
52963;DHT22;38827;53.024;6.596;2023-11-19T13:49:29;12.50;81.90
52963;DHT22;38827;53.024;6.596;2023-11-19T13:51:54;12.50;82.00
52963;DHT22;38827;53.024;6.596;2023-11-19T14:01:15;12.40;83.00
52963;DHT22;38827;53.024;6.596;2023-11-19T17:38:28;11.30;90.30
52963;DHT22;38827;53.024;6.596;2023-11-19T17:47:58;11.20;90.60
52963;DHT22;38827;53.024;6.596;2023-11-19T17:50:23;11.20;90.80
52963;DHT22;38827;53.024;6.596;2023-11-19T18:11:54;11.30;91.10
52963;DHT22;38827;53.024;6.596;2023-11-19T18:14:21;11.30;91.30
52963;DHT22;38827;53.024;6.596;2023-11-19T18:16:47;11.30;91.40
52963;DHT22;38827;53.024;6.596;2023-11-19T18:19:39;11.30;91.20
52963;DHT22;38827;53.024;6.596;2023-11-19T18:24:48;11.30;91.40
52963;DHT22;38827;53.024;6.596;2023-11-19T18:27:25;11.30;91.40
52963;DHT22;38827;53.024;6.596;2023-11-19T18:29:56;11.30;91.50
52963;DHT22;38827;53.024;6.596;2023-11-19T18:32:28;11.30;91.60
52963;DHT22;38827;53.024;6.596;2023-11-19T18:35:04;11.30;91.70
52963;DHT22;38827;53.024;6.596;2023-11-19T18:37:42;11.30;91.70
52963;DHT22;38827;53.024;6.596;2023-11-19T18:40:08;11.30;91.70
52963;DHT22;38827;53.024;6.596;2023-11-19T18:42:53;11.30;92.00
52963;DHT22;38827;53.024;6.596;2023-11-19T18:45:58;11.30;91.80
52963;DHT22;38827;53.024;6.596;2023-11-19T18:48:52;11.30;91.70
52963;DHT22;38827;53.024;6.596;2023-11-19T18:51:28;11.30;91.80
52963;DHT22;38827;53.024;6.596;2023-11-19T18:57:27;11.30;91.90
52963;DHT22;38827;53.024;6.596;2023-11-19T18:59:53;11.30;92.00
52963;DHT22;38827;53.024;6.596;2023-11-19T19:06:29;11.30;91.90
52963;DHT22;38827;53.024;6.596;2023-11-19T19:09:11;11.30;92.00
52963;DHT22;38827;53.024;6.596;2023-11-19T19:11:36;11.30;92.40
52963;DHT22;38827;53.024;6.596;2023-11-19T19:14:05;11.30;92.40
52963;DHT22;38827;53.024;6.596;2023-11-19T19:26:05;11.30;92.40
52963;DHT22;38827;53.024;6.596;2023-11-19T19:28:40;11.30;92.50
52963;DHT22;38827;53.024;6.596;2023-11-19T19:31:31;11.30;92.90
52963;DHT22;38827;53.024;6.596;2023-11-19T19:34:02;11.30;92.50
52963;DHT22;38827;53.024;6.596;2023-11-19T19:46:25;11.30;92.80
52963;DHT22;38827;53.024;6.596;2023-11-19T19:59:50;11.30;92.90
52963;DHT22;38827;53.024;6.596;2023-11-19T20:05:26;11.40;92.90
52963;DHT22;38827;53.024;6.596;2023-11-19T20:08:11;11.40;93.00
52963;DHT22;38827;53.024;6.596;2023-11-19T20:11:31;11.40;93.10
52963;DHT22;38827;53.024;6.596;2023-11-19T20:21:02;11.40;93.20
52963;DHT22;38827;53.024;6.596;2023-11-19T20:23:46;11.40;93.50
52963;DHT22;38827;53.024;6.596;2023-11-19T20:26:12;11.40;93.50
52963;DHT22;38827;53.024;6.596;2023-11-19T20:28:49;11.40;93.50
52963;DHT22;38827;53.024;6.596;2023-11-19T20:31:24;11.40;93.50
52963;DHT22;38827;53.024;6.596;2023-11-19T20:33:50;11.50;93.50
52963;DHT22;38827;53.024;6.596;2023-11-19T20:36:16;11.50;93.50
52963;DHT22;38827;53.024;6.596;2023-11-19T20:38:42;11.50;93.60
52963;DHT22;38827;53.024;6.596;2023-11-19T20:41:20;11.50;93.70
52963;DHT22;38827;53.024;6.596;2023-11-19T20:43:49;11.50;93.60
52963;DHT22;38827;53.024;6.596;2023-11-19T20:46:18;11.50;93.80
52963;DHT22;38827;53.024;6.596;2023-11-19T20:48:43;11.60;93.80
52963;DHT22;38827;53.024;6.596;2023-11-19T20:51:15;11.60;93.80
52963;DHT22;38827;53.024;6.596;2023-11-19T20:53:41;11.60;93.90
52963;DHT22;38827;53.024;6.596;2023-11-19T20:56:11;11.60;94.10
52963;DHT22;38827;53.024;6.596;2023-11-19T20:58:36;11.60;93.90
52963;DHT22;38827;53.024;6.596;2023-11-19T21:01:02;11.60;94.10
52963;DHT22;38827;53.024;6.596;2023-11-19T21:03:30;11.70;94.00
52963;DHT22;38827;53.024;6.596;2023-11-19T21:05:56;11.70;94.00
52963;DHT22;38827;53.024;6.596;2023-11-19T21:08:22;11.70;94.10
52963;DHT22;38827;53.024;6.596;2023-11-19T21:10:54;11.70;94.00
52963;DHT22;38827;53.024;6.596;2023-11-19T21:13:20;11.70;94.00
52963;DHT22;38827;53.024;6.596;2023-11-19T21:16:01;11.70;94.00
52963;DHT22;38827;53.024;6.596;2023-11-19T21:18:39;11.70;94.20
52963;DHT22;38827;53.024;6.596;2023-11-19T21:21:13;11.70;94.30
52963;DHT22;38827;53.024;6.596;2023-11-19T21:23:52;11.70;94.20
52963;DHT22;38827;53.024;6.596;2023-11-19T21:26:36;11.70;94.10
52963;DHT22;38827;53.024;6.596;2023-11-19T21:31:47;11.70;94.30
52963;DHT22;38827;53.024;6.596;2023-11-19T21:34:38;11.70;94.40
52963;DHT22;38827;53.024;6.596;2023-11-19T21:37:15;11.80;94.20
52963;DHT22;38827;53.024;6.596;2023-11-19T21:39:44;11.80;94.30
52963;DHT22;38827;53.024;6.596;2023-11-19T21:42:18;11.80;94.60
52963;DHT22;38827;53.024;6.596;2023-11-19T21:44:56;11.80;94.50
52963;DHT22;38827;53.024;6.596;2023-11-19T21:47:28;11.80;94.50
52963;DHT22;38827;53.024;6.596;2023-11-19T21:49:53;11.80;94.50
52963;DHT22;38827;53.024;6.596;2023-11-19T21:52:19;11.80;94.60
52963;DHT22;38827;53.024;6.596;2023-11-19T21:54:45;11.80;94.60
52963;DHT22;38827;53.024;6.596;2023-11-19T21:57:10;11.80;94.60
52963;DHT22;38827;53.024;6.596;2023-11-19T21:59:36;11.80;94.60
52963;DHT22;38827;53.024;6.596;2023-11-19T22:02:05;11.80;94.80
52963;DHT22;38827;53.024;6.596;2023-11-19T22:04:35;11.80;94.70
52963;DHT22;38827;53.024;6.596;2023-11-19T22:07:01;11.80;94.60
52963;DHT22;38827;53.024;6.596;2023-11-19T22:09:30;11.80;94.70
52963;DHT22;38827;53.024;6.596;2023-11-19T22:11:56;11.80;94.90
52963;DHT22;38827;53.024;6.596;2023-11-19T22:14:31;11.80;94.90
52963;DHT22;38827;53.024;6.596;2023-11-19T22:17:01;11.80;95.00
52963;DHT22;38827;53.024;6.596;2023-11-19T22:19:26;11.80;95.10
52963;DHT22;38827;53.024;6.596;2023-11-19T22:21:52;11.80;95.20
52963;DHT22;38827;53.024;6.596;2023-11-19T22:24:27;11.80;95.10
52963;DHT22;38827;53.024;6.596;2023-11-19T22:26:53;11.70;94.80
52963;DHT22;38827;53.024;6.596;2023-11-19T22:31:44;11.60;94.60
52963;DHT22;38827;53.024;6.596;2023-11-19T22:34:28;11.60;94.70
52963;DHT22;38827;53.024;6.596;2023-11-19T22:37:06;11.50;94.70
52963;DHT22;38827;53.024;6.596;2023-11-19T22:39:32;11.50;95.00
52963;DHT22;38827;53.024;6.596;2023-11-19T22:42:16;11.50;95.00
52963;DHT22;38827;53.024;6.596;2023-11-19T22:44:47;11.50;95.10
52963;DHT22;38827;53.024;6.596;2023-11-19T22:47:13;11.50;95.80
52963;DHT22;38827;53.024;6.596;2023-11-19T22:49:54;11.60;95.90
52963;DHT22;38827;53.024;6.596;2023-11-19T22:52:20;11.60;95.80
52963;DHT22;38827;53.024;6.596;2023-11-19T22:54:45;11.70;95.90
52963;DHT22;38827;53.024;6.596;2023-11-19T22:57:11;11.70;95.90
52963;DHT22;38827;53.024;6.596;2023-11-19T22:59:42;11.70;95.80
52963;DHT22;38827;53.024;6.596;2023-11-19T23:02:08;11.70;95.80
52963;DHT22;38827;53.024;6.596;2023-11-19T23:04:33;11.70;95.90
52963;DHT22;38827;53.024;6.596;2023-11-19T23:07:11;11.70;95.80
52963;DHT22;38827;53.024;6.596;2023-11-19T23:09:40;11.80;95.70
52963;DHT22;38827;53.024;6.596;2023-11-19T23:12:06;11.80;95.90
52963;DHT22;38827;53.024;6.596;2023-11-19T23:14:35;11.80;95.70
52963;DHT22;38827;53.024;6.596;2023-11-19T23:17:01;11.80;95.70
52963;DHT22;38827;53.024;6.596;2023-11-19T23:19:26;11.80;95.90
52963;DHT22;38827;53.024;6.596;2023-11-19T23:21:52;11.80;95.90
52963;DHT22;38827;53.024;6.596;2023-11-19T23:24:18;11.80;95.90
52963;DHT22;38827;53.024;6.596;2023-11-19T23:26:44;11.80;95.90
52963;DHT22;38827;53.024;6.596;2023-11-19T23:29:09;11.80;95.80
52963;DHT22;38827;53.024;6.596;2023-11-19T23:31:35;11.80;95.90
52963;DHT22;38827;53.024;6.596;2023-11-19T23:34:01;11.80;95.80
52963;DHT22;38827;53.024;6.596;2023-11-19T23:36:27;11.80;95.90
52963;DHT22;38827;53.024;6.596;2023-11-19T23:38:56;11.80;95.90
52963;DHT22;38827;53.024;6.596;2023-11-19T23:41:21;11.80;96.00
52963;DHT22;38827;53.024;6.596;2023-11-19T23:43:48;11.80;95.90
52963;DHT22;38827;53.024;6.596;2023-11-19T23:46:14;11.80;96.00
52963;DHT22;38827;53.024;6.596;2023-11-19T23:48:41;11.80;95.80
52963;DHT22;38827;53.024;6.596;2023-11-19T23:51:07;11.80;95.90
52963;DHT22;38827;53.024;6.596;2023-11-19T23:53:35;11.80;95.90
52963;DHT22;38827;53.024;6.596;2023-11-19T23:56:00;11.80;95.90
52963;DHT22;38827;53.024;6.596;2023-11-19T23:58:26;11.80;95.80
